Time;durP1;ratioP1;P1;durP2;ratioP2;P2;SDS_P1;SDS_P2;PMS_P1;PMS_P2;Temp;Humidity;BMP_temperature;BMP_pressure;BME280_temperature;BME280_humidity;BME280_pressure;Samples;Min_cycle;Max_cycle;Signal;HPM_P1;HPM_P2
2021/12/20 00:00:42;;;;;;;32.80;4.20;;;4.40;99.90;;;;;;12487399;28;20132;-38
2021/12/20 00:06:44;;;;;;;32.22;3.72;;;4.40;99.90;;;;;;12497514;28;20409;-38
2021/12/20 00:12:46;;;;;;;29.92;3.95;;;4.40;99.90;;;;;;12494219;28;20061;-39
2021/12/20 00:18:48;;;;;;;30.75;4.45;;;4.60;99.90;;;;;;12494340;28;20081;-38
2021/12/20 00:24:51;;;;;;;31.13;4.70;;;4.60;99.90;;;;;;12493363;28;20057;-38
2021/12/20 00:30:53;;;;;;;30.60;4.28;;;4.70;99.90;;;;;;12495570;28;20185;-38
2021/12/20 00:37:04;;;;;;;38.50;4.93;;;4.70;99.90;;;;;;12495338;28;20113;-36
2021/12/20 00:43:06;;;;;;;26.38;3.38;;;4.70;99.90;;;;;;12493647;28;20045;-41
2021/12/20 00:49:07;;;;;;;32.38;4.32;;;4.80;99.90;;;;;;12495952;28;20478;-37
2021/12/20 00:55:12;;;;;;;32.08;4.65;;;4.80;99.90;;;;;;12492199;28;20049;-36
2021/12/20 01:01:14;;;;;;;38.53;5.03;;;4.80;99.90;;;;;;12495389;28;20095;-39
2021/12/20 01:07:16;;;;;;;38.40;5.38;;;4.60;99.90;;;;;;12491118;28;20057;-38
2021/12/20 01:13:21;;;;;;;37.55;4.70;;;4.50;99.90;;;;;;12489349;28;20057;-38
2021/12/20 01:19:25;;;;;;;28.90;5.43;;;4.40;99.90;;;;;;12492582;28;20413;-36
2021/12/20 01:25:27;;;;;;;30.83;4.65;;;4.30;99.90;;;;;;12540672;28;20045;-39
2021/12/20 01:31:29;;;;;;;51.03;5.65;;;4.20;99.90;;;;;;12542417;28;20071;-39
2021/12/20 01:37:31;;;;;;;43.25;6.30;;;4.20;99.90;;;;;;12543726;28;20098;-38
2021/12/20 01:43:33;;;;;;;34.95;5.50;;;4.10;99.90;;;;;;12538537;28;20041;-37
2021/12/20 01:49:42;;;;;;;29.00;4.80;;;3.80;99.90;;;;;;12542498;28;20427;-38
2021/12/20 01:55:45;;;;;;;41.10;5.80;;;3.80;99.90;;;;;;12534397;28;20048;-38
2021/12/20 02:01:46;;;;;;;40.30;5.57;;;3.60;99.90;;;;;;12538680;28;20072;-38
2021/12/20 02:07:51;;;;;;;36.35;5.60;;;3.40;99.90;;;;;;12540472;28;20078;-36
2021/12/20 02:13:53;;;;;;;35.20;5.93;;;3.30;99.90;;;;;;12533648;28;20051;-38
2021/12/20 02:20:00;;;;;;;47.00;6.90;;;3.30;99.90;;;;;;12538828;28;20076;-37
2021/12/20 02:26:04;;;;;;;46.75;6.88;;;3.20;99.90;;;;;;12536223;28;20448;-38
2021/12/20 02:38:49;;;;;;;41.70;6.80;;;3.10;99.90;;;;;;12455140;28;21146;-36
2021/12/20 02:45:05;;;;;;;;;;;3.10;99.90;;;;;;12532910;28;20045;-37
2021/12/20 02:51:07;;;;;;;;;;;3.20;99.90;;;;;;12536049;28;19929;-36
2021/12/20 02:57:09;;;;;;;36.58;7.80;;;3.30;99.90;;;;;;12530651;28;20409;-36
2021/12/20 03:03:11;;;;;;;43.58;8.35;;;3.30;99.90;;;;;;12536106;28;20080;-38
2021/12/20 03:09:17;;;;;;;33.90;8.02;;;3.50;99.90;;;;;;12538256;28;20048;-38
2021/12/20 03:15:23;;;;;;;44.22;7.60;;;3.50;99.90;;;;;;12533056;28;20393;-38
2021/12/20 03:21:25;;;;;;;45.97;8.43;;;3.60;99.90;;;;;;12535833;28;20057;-36
2021/12/20 03:27:27;;;;;;;40.05;7.70;;;3.60;99.90;;;;;;12533128;28;20053;-38
2021/12/20 03:33:29;;;;;;;36.08;7.35;;;3.60;99.90;;;;;;12531138;28;20052;-36
2021/12/20 03:39:32;;;;;;;37.58;7.00;;;3.50;99.90;;;;;;12517335;28;20044;-38
2021/12/20 03:45:36;;;;;;;34.78;6.65;;;3.30;99.90;;;;;;12530990;28;20481;-36
2021/12/20 03:51:38;;;;;;;38.47;7.22;;;3.30;99.90;;;;;;12538040;28;20049;-37
2021/12/20 03:57:40;;;;;;;38.33;7.25;;;3.00;99.90;;;;;;12533982;28;20132;-37
2021/12/20 04:03:43;;;;;;;31.88;6.22;;;3.10;99.90;;;;;;12531028;28;20052;-38
2021/12/20 04:09:45;;;;;;;43.83;7.95;;;3.00;99.90;;;;;;12534364;28;20416;-37
2021/12/20 04:15:47;;;;;;;33.47;7.07;;;2.80;99.90;;;;;;12533755;28;20052;-38
2021/12/20 04:21:51;;;;;;;39.78;7.57;;;2.70;99.90;;;;;;12535073;28;20049;-37
2021/12/20 04:27:53;;;;;;;34.70;7.18;;;2.40;99.90;;;;;;12536692;28;20053;-37
2021/12/20 04:33:55;;;;;;;40.00;8.18;;;2.20;99.90;;;;;;12535577;28;20070;-36
2021/12/20 04:39:58;;;;;;;31.08;8.45;;;2.30;99.90;;;;;;12535892;28;20489;-36
2021/12/20 04:46:00;;;;;;;40.15;9.80;;;2.30;99.90;;;;;;12537223;28;20045;-38
2021/12/20 04:52:03;;;;;;;53.90;10.00;;;2.30;99.90;;;;;;12543854;28;20052;-37
2021/12/20 04:58:06;;;;;;;54.00;10.68;;;2.30;99.90;;;;;;12544315;28;20056;-38
2021/12/20 05:04:08;;;;;;;38.67;8.68;;;2.30;99.90;;;;;;12542789;28;20135;-37
2021/12/20 05:10:13;;;;;;;55.97;11.55;;;2.40;99.90;;;;;;12548059;28;20049;-40
2021/12/20 05:16:16;;;;;;;82.20;10.73;;;2.30;99.90;;;;;;12545220;28;20060;-37
2021/12/20 05:22:21;;;;;;;60.25;10.02;;;2.40;99.90;;;;;;12545492;28;20045;-36
2021/12/20 05:28:24;;;;;;;136.02;10.77;;;2.50;99.90;;;;;;12542495;28;20692;-39
2021/12/20 05:34:26;;;;;;;157.00;10.43;;;2.00;99.90;;;;;;12540594;28;20049;-38
2021/12/20 05:40:28;;;;;;;152.30;11.05;;;1.70;99.90;;;;;;12526445;28;20535;-38
2021/12/20 05:46:31;;;;;;;219.60;11.70;;;1.70;99.90;;;;;;12542099;28;20419;-38
2021/12/20 05:52:34;;;;;;;239.52;10.70;;;1.70;99.90;;;;;;12543571;28;20084;-38
2021/12/20 05:58:36;;;;;;;263.35;9.95;;;1.70;99.90;;;;;;12543357;28;20052;-38
2021/12/20 06:04:38;;;;;;;161.70;8.75;;;1.50;99.90;;;;;;12539753;28;20087;-39
2021/12/20 06:10:40;;;;;;;187.00;8.10;;;1.30;99.90;;;;;;12540469;28;20052;-37
2021/12/20 06:16:42;;;;;;;175.85;9.15;;;1.20;99.90;;;;;;12521142;28;20559;-36
2021/12/20 06:22:44;;;;;;;174.95;8.10;;;1.10;99.90;;;;;;12542847;28;20124;-36
2021/12/20 06:28:46;;;;;;;150.70;8.50;;;1.00;99.90;;;;;;12542345;28;20045;-38
2021/12/20 06:34:50;;;;;;;55.67;5.78;;;0.80;99.90;;;;;;12541109;28;20148;-36
2021/12/20 06:40:54;;;;;;;51.38;5.60;;;0.90;99.90;;;;;;12540101;28;20420;-36
2021/12/20 06:46:57;;;;;;;27.77;5.40;;;0.80;99.90;;;;;;12541847;28;20627;-38
2021/12/20 06:52:59;;;;;;;16.38;4.75;;;0.50;99.90;;;;;;12541077;28;20072;-38
2021/12/20 06:59:01;;;;;;;15.82;4.88;;;0.30;99.90;;;;;;12540486;28;20450;-37
2021/12/20 07:05:05;;;;;;;9.30;4.65;;;0.30;99.90;;;;;;12536812;28;20047;-38
2021/12/20 07:11:08;;;;;;;10.95;4.38;;;0.40;99.90;;;;;;12539202;28;20514;-36
2021/12/20 07:17:11;;;;;;;57.10;7.23;;;0.80;99.90;;;;;;12538536;28;20049;-38
2021/12/20 07:23:13;;;;;;;46.35;6.88;;;0.90;99.90;;;;;;12535303;28;20045;-38
2021/12/20 07:29:28;;;;;;;57.78;7.57;;;1.20;99.90;;;;;;12539077;28;20118;-38
2021/12/20 07:35:57;;;;;;;15.60;5.78;;;1.30;99.90;;;;;;12528197;28;20516;-38
2021/12/20 07:42:03;;;;;;;127.72;9.18;;;1.50;99.90;;;;;;12550507;28;20049;-36
2021/12/20 07:48:07;;;;;;;87.60;8.30;;;1.50;99.90;;;;;;12542628;28;20072;-35
2021/12/20 07:54:09;;;;;;;59.45;9.38;;;1.30;99.90;;;;;;12536897;28;20049;-38
2021/12/20 08:00:12;;;;;;;61.80;8.32;;;1.30;99.90;;;;;;12538088;28;20202;-37
2021/12/20 08:06:14;;;;;;;66.63;8.68;;;1.30;99.90;;;;;;12534835;28;20045;-38
2021/12/20 08:12:18;;;;;;;12.05;6.57;;;1.10;99.90;;;;;;12537302;28;20048;-38
2021/12/20 08:18:20;;;;;;;88.05;7.25;;;1.20;99.90;;;;;;12535268;28;20136;-36
2021/12/20 08:24:23;;;;;;;85.63;7.53;;;1.10;99.90;;;;;;12537852;28;20528;-38
2021/12/20 08:30:25;;;;;;;52.13;9.10;;;0.80;99.90;;;;;;12545226;28;20052;-37
2021/12/20 08:36:27;;;;;;;163.95;12.43;;;0.70;99.90;;;;;;12542074;28;20109;-36
2021/12/20 08:42:29;;;;;;;230.57;11.50;;;0.60;99.90;;;;;;12517511;28;20140;-36
2021/12/20 08:48:38;;;;;;;164.73;11.60;;;0.80;99.90;;;;;;12493214;28;20042;-37
2021/12/20 08:54:47;;;;;;;121.28;7.53;;;0.90;99.90;;;;;;12505985;28;20118;-36
2021/12/20 09:00:55;;;;;;;25.17;5.38;;;0.90;99.90;;;;;;12503125;28;20057;-38
2021/12/20 09:07:16;;;;;;;106.53;9.02;;;1.30;99.90;;;;;;12505216;28;20497;-37
2021/12/20 09:13:25;;;;;;;58.97;7.05;;;1.40;99.90;;;;;;12497808;28;20067;-36
2021/12/20 09:19:28;;;;;;;45.50;6.23;;;1.40;99.90;;;;;;12549447;28;20106;-37
2021/12/20 09:25:43;;;;;;;12.32;5.43;;;1.50;99.90;;;;;;12546639;28;20041;-38
2021/12/20 09:31:48;;;;;;;33.50;5.65;;;1.80;99.90;;;;;;12547477;28;20056;-36
2021/12/20 09:37:51;;;;;;;60.28;6.82;;;2.00;99.90;;;;;;12545879;28;20049;-37
2021/12/20 09:43:55;;;;;;;65.07;6.10;;;1.60;99.90;;;;;;12546293;28;20160;-38
2021/12/20 09:50:03;;;;;;;136.73;9.32;;;1.50;99.90;;;;;;12527499;28;20053;-36
2021/12/20 09:56:07;;;;;;;95.43;7.88;;;1.50;99.90;;;;;;12543790;28;20075;-38
2021/12/20 10:02:09;;;;;;;57.53;7.00;;;1.40;99.90;;;;;;12541905;28;20577;-36
2021/12/20 10:08:15;;;;;;;35.60;5.97;;;1.70;99.90;;;;;;12546054;28;20428;-37
2021/12/20 10:14:19;;;;;;;62.00;7.25;;;1.70;99.90;;;;;;12492867;28;20060;-37
2021/12/20 10:20:27;;;;;;;58.40;7.78;;;1.70;99.90;;;;;;12492083;28;20425;-36
2021/12/20 10:26:41;;;;;;;55.47;7.50;;;1.90;99.90;;;;;;12497658;28;20045;-37
2021/12/20 10:32:45;;;;;;;32.07;6.63;;;1.80;99.90;;;;;;12488673;28;20050;-38
2021/12/20 10:38:56;;;;;;;41.40;6.75;;;1.90;99.90;;;;;;12491881;28;20398;-39
2021/12/20 10:45:13;;;;;;;12.88;5.43;;;1.90;99.90;;;;;;12492046;28;20601;-37
2021/12/20 10:51:27;;;;;;;21.10;7.03;;;2.20;99.90;;;;;;12540002;28;20136;-38
2021/12/20 10:57:29;;;;;;;32.03;6.18;;;2.30;99.90;;;;;;12545833;28;20053;-38
2021/12/20 11:03:36;;;;;;;51.03;7.35;;;2.20;99.90;;;;;;12540018;28;20068;-38
2021/12/20 11:09:41;;;;;;;38.83;7.70;;;2.00;99.90;;;;;;12520889;28;20040;-37
2021/12/20 11:15:44;;;;;;;19.77;7.35;;;2.10;99.90;;;;;;12539560;28;20041;-38
2021/12/20 11:22:04;;;;;;;46.08;10.50;;;2.20;99.90;;;;;;12539785;28;20040;-39
2021/12/20 11:28:06;;;;;;;39.38;9.30;;;2.20;99.90;;;;;;12541016;28;20056;-37
2021/12/20 11:34:09;;;;;;;54.05;10.23;;;2.10;99.90;;;;;;12537949;28;20059;-38
2021/12/20 11:40:14;;;;;;;42.05;9.52;;;2.10;99.90;;;;;;12539453;28;20044;-36
2021/12/20 11:46:17;;;;;;;15.88;9.35;;;2.10;99.90;;;;;;12538537;28;20440;-37
2021/12/20 11:52:19;;;;;;;15.50;7.50;;;2.40;99.90;;;;;;12540587;28;20083;-38
2021/12/20 11:58:28;;;;;;;17.02;7.80;;;2.50;99.90;;;;;;12540285;28;20148;-36
2021/12/20 12:04:54;;;;;;;26.00;7.53;;;2.20;99.90;;;;;;12539092;28;20036;-38
2021/12/20 12:11:04;;;;;;;15.07;7.70;;;2.40;99.90;;;;;;12537793;28;20067;-38
2021/12/20 12:17:10;;;;;;;15.68;7.60;;;2.80;99.90;;;;;;12535865;28;20072;-39
2021/12/20 12:23:22;;;;;;;14.23;7.72;;;3.00;99.90;;;;;;12538590;28;20045;-38
2021/12/20 12:29:25;;;;;;;15.65;8.80;;;3.10;99.90;;;;;;12537123;28;20125;-37
2021/12/20 12:35:38;;;;;;;17.10;9.10;;;3.40;99.90;;;;;;12539089;28;20041;-38
2021/12/20 12:41:46;;;;;;;15.90;8.55;;;3.60;99.90;;;;;;12536456;28;20053;-38
2021/12/20 12:47:49;;;;;;;21.38;10.93;;;3.50;99.90;;;;;;12539279;28;20273;-36
2021/12/20 12:53:56;;;;;;;22.85;8.48;;;3.40;99.90;;;;;;12520825;28;20697;-39
2021/12/20 13:00:12;;;;;;;20.98;8.93;;;3.20;99.90;;;;;;12537685;28;20902;-38
2021/12/20 13:06:18;;;;;;;21.95;10.45;;;3.00;99.90;;;;;;12535181;28;20052;-39
2021/12/20 13:12:34;;;;;;;18.90;9.35;;;2.60;99.90;;;;;;12549385;28;20080;-39
2021/12/20 13:18:39;;;;;;;17.45;9.13;;;2.60;99.90;;;;;;12549525;28;20044;-37
2021/12/20 13:24:42;;;;;;;18.70;9.77;;;2.30;99.90;;;;;;12545336;28;20032;-37
2021/12/20 13:30:54;;;;;;;15.32;8.10;;;2.50;99.90;;;;;;12545433;28;20048;-38
2021/12/20 13:36:57;;;;;;;17.05;8.88;;;2.60;99.90;;;;;;12544742;28;20061;-38
2021/12/20 13:42:59;;;;;;;19.15;8.75;;;2.50;99.90;;;;;;12550396;28;20052;-36
2021/12/20 13:49:24;;;;;;;18.55;8.93;;;2.40;99.90;;;;;;12550058;28;20150;-36
2021/12/20 13:55:26;;;;;;;17.55;9.93;;;2.30;99.90;;;;;;12547770;28;20055;-38
2021/12/20 14:01:29;;;;;;;17.30;10.30;;;2.30;99.90;;;;;;12544659;28;20064;-38
2021/12/20 14:07:37;;;;;;;15.55;9.80;;;2.20;99.90;;;;;;12546555;28;20044;-37
2021/12/20 14:13:40;;;;;;;16.38;10.02;;;2.00;99.90;;;;;;12537750;28;20045;-38
2021/12/20 14:19:57;;;;;;;16.92;9.32;;;2.00;99.90;;;;;;12540164;28;20406;-36
2021/12/20 14:26:22;;;;;;;18.77;10.48;;;1.90;99.90;;;;;;12516750;28;20052;-36
2021/12/20 14:32:42;;;;;;;17.88;9.60;;;1.80;99.90;;;;;;12537790;28;20045;-36
2021/12/20 14:38:53;;;;;;;20.63;11.50;;;1.70;99.90;;;;;;12540145;28;20071;-38
2021/12/20 14:45:01;;;;;;;25.80;12.57;;;2.00;99.90;;;;;;12528421;28;20102;-38
2021/12/20 14:51:21;;;;;;;22.75;13.90;;;1.80;99.90;;;;;;12534316;28;20045;-38
2021/12/20 14:57:29;;;;;;;20.75;12.95;;;1.50;99.90;;;;;;12538862;28;20086;-37
2021/12/20 15:03:41;;;;;;;20.08;10.70;;;1.60;99.90;;;;;;12521829;28;20393;-36
2021/12/20 15:09:44;;;;;;;24.33;11.73;;;1.30;99.90;;;;;;12536134;28;20053;-38
2021/12/20 15:15:46;;;;;;;16.08;8.88;;;1.10;99.90;;;;;;12527618;28;20140;-36
2021/12/20 15:21:51;;;;;;;18.08;7.97;;;0.90;99.90;;;;;;12533761;28;20060;-38
2021/12/20 15:27:54;;;;;;;;;;;0.70;99.90;;;;;;12533658;28;20060;-37
2021/12/20 15:33:57;;;;;;;12.65;7.88;;;0.50;99.90;;;;;;12529557;28;19950;-37
2021/12/20 15:40:01;;;;;;;15.70;6.90;;;0.50;99.90;;;;;;12531306;28;20056;-36
2021/12/20 15:46:03;;;;;;;16.27;7.32;;;0.40;99.90;;;;;;12532431;28;20045;-37
2021/12/20 15:52:06;;;;;;;15.52;7.38;;;0.50;99.90;;;;;;12529942;28;20520;-37
2021/12/20 15:58:09;;;;;;;16.10;8.20;;;0.30;99.90;;;;;;12537247;28;20485;-37
2021/12/20 16:04:12;;;;;;;15.13;7.15;;;0.30;99.90;;;;;;12540571;28;20052;-36
2021/12/20 16:10:16;;;;;;;15.23;6.68;;;0.30;99.90;;;;;;12534191;28;20059;-36
2021/12/20 16:16:18;;;;;;;14.23;6.57;;;0.20;99.90;;;;;;12538350;28;20052;-36
2021/12/20 16:22:23;;;;;;;15.05;6.10;;;0.20;99.90;;;;;;12541204;28;20052;-37
2021/12/20 16:28:25;;;;;;;15.95;5.90;;;0.10;99.90;;;;;;12539305;28;20049;-36
2021/12/20 16:34:27;;;;;;;15.98;6.57;;;0.10;99.90;;;;;;12537324;28;20049;-36
2021/12/20 16:40:30;;;;;;;11.63;5.65;;;0.10;99.90;;;;;;12539683;28;20497;-37
2021/12/20 16:46:34;;;;;;;16.43;5.90;;;0.10;99.90;;;;;;12531348;28;20044;-38
2021/12/20 16:52:37;;;;;;;11.75;6.00;;;0.10;99.90;;;;;;12538034;28;20048;-36
2021/12/20 16:58:41;;;;;;;;;;;0.00;99.90;;;;;;12537866;28;20485;-36
2021/12/20 17:04:44;;;;;;;16.85;6.38;;;0.10;99.90;;;;;;12547174;28;20423;-36
2021/12/20 17:10:49;;;;;;;11.43;5.00;;;0.10;99.90;;;;;;12549270;28;20044;-37
2021/12/20 17:16:52;;;;;;;13.88;6.63;;;0.00;99.90;;;;;;12547378;28;20063;-36
2021/12/20 17:22:58;;;;;;;12.45;5.50;;;-0.10;99.90;;;;;;12547251;28;20500;-37
2021/12/20 17:29:01;;;;;;;14.25;5.30;;;0.00;99.90;;;;;;12547805;28;20417;-38
2021/12/20 17:35:04;;;;;;;11.65;4.70;;;0.00;99.90;;;;;;12549228;28;20041;-36
2021/12/20 17:41:06;;;;;;;12.75;5.97;;;-0.10;99.90;;;;;;12549107;28;20053;-36
2021/12/20 17:47:08;;;;;;;11.80;5.68;;;-0.10;99.90;;;;;;12548849;28;20055;-36
2021/12/20 17:53:12;;;;;;;12.98;6.43;;;-0.10;99.90;;;;;;12551783;28;20045;-38
2021/12/20 17:59:15;;;;;;;11.90;5.10;;;0.00;99.90;;;;;;12530004;28;20182;-37
2021/12/20 18:05:18;;;;;;;12.93;5.70;;;-0.10;99.90;;;;;;12543139;28;20048;-38
2021/12/20 18:11:22;;;;;;;14.35;5.30;;;-0.10;99.90;;;;;;12546847;28;20172;-36
2021/12/20 18:17:28;;;;;;;14.23;6.65;;;-0.20;99.90;;;;;;12545378;28;20435;-36
2021/12/20 18:23:30;;;;;;;10.55;5.80;;;-0.20;99.90;;;;;;12551137;28;20143;-37
2021/12/20 18:29:35;;;;;;;11.40;5.03;;;-0.40;99.90;;;;;;12546716;28;20139;-36
2021/12/20 18:35:39;;;;;;;9.90;5.10;;;-0.30;99.90;;;;;;12544455;28;20062;-38
2021/12/20 18:41:42;;;;;;;13.88;5.45;;;-0.30;99.90;;;;;;12548513;28;20452;-38
2021/12/20 18:47:46;;;;;;;;;;;-0.30;99.90;;;;;;12544416;28;20135;-37
2021/12/20 18:53:48;;;;;;;14.77;6.20;;;-0.30;99.90;;;;;;12543262;28;19928;-37
2021/12/20 18:59:51;;;;;;;15.43;6.30;;;-0.30;99.90;;;;;;12543956;28;20304;-36
2021/12/20 19:05:53;;;;;;;12.07;6.47;;;-0.30;99.90;;;;;;12524341;28;20511;-38
2021/12/20 19:11:58;;;;;;;12.75;6.28;;;-0.30;99.90;;;;;;12536640;28;20071;-36
2021/12/20 19:18:07;;;;;;;13.93;6.85;;;-0.30;99.90;;;;;;12543978;28;20061;-36
2021/12/20 19:24:11;;;;;;;16.67;6.72;;;-0.40;99.90;;;;;;12528958;28;20087;-37
2021/12/20 19:30:17;;;;;;;14.55;7.03;;;-0.40;99.90;;;;;;12517175;28;20056;-37
2021/12/20 19:36:29;;;;;;;14.10;6.88;;;-0.40;99.90;;;;;;12535763;28;20101;-37
2021/12/20 19:42:33;;;;;;;14.75;6.93;;;-0.40;99.90;;;;;;12530106;28;20057;-38
2021/12/20 19:48:35;;;;;;;13.88;6.03;;;-0.50;99.90;;;;;;12540995;28;20471;-38
2021/12/20 19:54:38;;;;;;;15.23;7.13;;;-0.60;99.90;;;;;;12539786;28;20072;-36
2021/12/20 20:00:41;;;;;;;15.60;6.55;;;-0.60;99.90;;;;;;12541645;28;20060;-36
2021/12/20 20:06:44;;;;;;;14.15;6.43;;;-0.80;99.90;;;;;;12543736;28;20056;-38
2021/12/20 20:12:46;;;;;;;14.75;7.88;;;-0.80;99.90;;;;;;12540738;28;20091;-36
2021/12/20 20:18:49;;;;;;;14.68;7.88;;;-0.70;99.90;;;;;;12548142;28;20537;-38
2021/12/20 20:24:53;;;;;;;13.60;6.50;;;-0.70;99.90;;;;;;12548749;28;20408;-36
2021/12/20 20:30:55;;;;;;;20.33;7.20;;;-0.70;99.90;;;;;;12551110;28;20583;-38
2021/12/20 20:36:57;;;;;;;14.18;6.63;;;-0.80;99.90;;;;;;12548815;28;20128;-37
2021/12/20 20:43:01;;;;;;;19.48;7.57;;;-0.80;99.90;;;;;;12551070;28;20059;-37
2021/12/20 20:49:05;;;;;;;14.77;7.05;;;-0.80;99.90;;;;;;12549558;28;20065;-37
2021/12/20 20:55:09;;;;;;;13.77;7.60;;;-0.80;99.90;;;;;;12548723;28;20097;-37
2021/12/20 21:01:24;;;;;;;16.40;7.05;;;-1.00;99.90;;;;;;12547075;28;20330;-38
2021/12/20 21:07:29;;;;;;;11.18;7.07;;;-0.60;99.90;;;;;;12547255;28;20135;-37
2021/12/20 21:13:32;;;;;;;15.48;8.45;;;-0.30;99.90;;;;;;12548134;28;20135;-38
2021/12/20 21:19:34;;;;;;;13.25;8.32;;;-0.30;99.90;;;;;;12549758;28;20493;-36
2021/12/20 21:25:37;;;;;;;22.40;13.63;;;-0.40;99.90;;;;;;12547162;28;20053;-36
2021/12/20 21:31:45;;;;;;;17.33;8.50;;;-0.70;99.90;;;;;;12545553;28;20052;-36
2021/12/20 21:37:48;;;;;;;11.70;6.70;;;-0.90;99.90;;;;;;12530637;28;20061;-37
2021/12/20 21:43:51;;;;;;;18.23;9.32;;;-0.80;99.90;;;;;;12544428;28;20122;-36
2021/12/20 21:49:53;;;;;;;17.08;8.80;;;-0.60;99.90;;;;;;12544770;28;20053;-38
2021/12/20 21:55:55;;;;;;;18.83;10.18;;;-0.40;99.90;;;;;;12546483;28;20044;-38
2021/12/20 22:01:57;;;;;;;19.77;10.70;;;-0.40;99.90;;;;;;12543466;28;20082;-37
2021/12/20 22:07:59;;;;;;;15.07;8.80;;;-0.40;99.90;;;;;;12545431;28;20044;-38
2021/12/20 22:14:03;;;;;;;15.25;9.07;;;-0.40;99.90;;;;;;12541866;28;20143;-37
2021/12/20 22:20:12;;;;;;;17.73;10.13;;;-0.40;99.90;;;;;;12544441;28;20044;-37
2021/12/20 22:26:14;;;;;;;19.15;10.68;;;-0.40;99.90;;;;;;12546894;28;20056;-36
2021/12/20 22:32:17;;;;;;;20.42;10.05;;;-0.80;99.90;;;;;;12541679;28;20088;-38
2021/12/20 22:38:19;;;;;;;16.27;8.82;;;-0.90;99.90;;;;;;12543567;28;20105;-37
2021/12/20 22:44:22;;;;;;;16.48;8.13;;;-1.20;99.90;;;;;;12541962;28;20591;-37
2021/12/20 22:50:24;;;;;;;19.00;8.23;;;-1.40;99.90;;;;;;12541025;28;20473;-38
2021/12/20 22:56:26;;;;;;;13.98;7.75;;;-1.60;99.90;;;;;;12542207;28;20048;-38
2021/12/20 23:02:29;;;;;;;12.90;7.88;;;-1.70;99.90;;;;;;12522278;28;20064;-37
2021/12/20 23:08:32;;;;;;;14.18;7.38;;;-1.50;99.90;;;;;;12544395;28;20048;-38
2021/12/20 23:14:36;;;;;;;22.40;12.25;;;-1.20;99.90;;;;;;12542284;28;20076;-36
2021/12/20 23:20:39;;;;;;;24.02;14.88;;;-1.10;99.90;;;;;;12542288;28;20049;-38
2021/12/20 23:26:41;;;;;;;74.57;16.10;;;-1.30;99.90;;;;;;12542871;28;20044;-37
2021/12/20 23:32:45;;;;;;;168.73;18.85;;;-1.20;99.90;;;;;;12520435;28;20045;-36
2021/12/20 23:38:53;;;;;;;30.00;13.40;;;-1.10;99.90;;;;;;12542639;28;20053;-38
2021/12/20 23:44:55;;;;;;;21.10;12.90;;;-1.20;99.90;;;;;;12540601;28;20684;-38
2021/12/20 23:50:59;;;;;;;41.28;14.30;;;-1.50;99.90;;;;;;12542134;28;20409;-38
2021/12/20 23:57:02;;;;;;;20.90;12.32;;;-1.40;99.90;;;;;;12542105;28;20132;-36
